Time;durP1;ratioP1;P1;durP2;ratioP2;P2;SDS_P1;SDS_P2;PMS_P1;PMS_P2;Temp;Humidity;BMP_temperature;BMP_pressure;BME280_temperature;BME280_humidity;BME280_pressure;Samples;Min_cycle;Max_cycle;Signal;HPM_P1;HPM_P2
2023/07/14 00:00:15;;;;;;;5.57;2.67;;;;;;;13.85;100.00;100965.28;690769;28;962;-61
2023/07/14 00:00:42;;;;;;;4.30;2.70;;;;;;;13.88;100.00;100960.00;689587;28;1278;-60
2023/07/14 00:01:02;;;;;;;4.45;2.55;;;;;;;13.89;100.00;100959.09;688904;28;1447;-61
2023/07/14 00:01:25;;;;;;;4.87;2.67;;;;;;;13.91;100.00;100962.56;689760;28;4327;-60
2023/07/14 00:01:45;;;;;;;4.82;2.70;;;;;;;13.93;100.00;100949.44;691737;28;1374;-60
2023/07/14 00:02:14;;;;;;;6.17;2.73;;;;;;;13.93;100.00;100952.91;691536;28;1621;-60
2023/07/14 00:02:35;;;;;;;5.30;2.58;;;;;;;13.92;100.00;100964.31;692106;28;1118;-60
2023/07/14 00:02:56;;;;;;;4.93;2.70;;;;;;;13.91;100.00;100959.94;691552;28;1638;-59
2023/07/14 00:03:17;;;;;;;4.55;2.65;;;;;;;13.90;100.00;100962.59;692650;28;1366;-60
2023/07/14 00:03:37;;;;;;;3.80;2.57;;;;;;;13.93;100.00;100954.69;690894;28;1313;-60
2023/07/14 00:03:58;;;;;;;4.00;2.57;;;;;;;13.94;100.00;100953.78;688660;28;1744;-61
2023/07/14 00:04:33;;;;;;;4.55;2.80;;;;;;;13.95;100.00;100956.38;689443;28;4391;-60
2023/07/14 00:04:53;;;;;;;5.72;3.00;;;;;;;13.96;100.00;100963.38;688020;28;2175;-60
2023/07/14 00:05:17;;;;;;;5.57;3.10;;;;;;;13.94;100.00;100952.03;689956;28;1310;-61
2023/07/14 00:05:39;;;;;;;5.07;2.92;;;;;;;13.94;100.00;100956.41;689685;28;1214;-60
2023/07/14 00:05:59;;;;;;;5.13;3.03;;;;;;;13.94;100.00;100959.03;691165;28;1526;-61
2023/07/14 00:06:20;;;;;;;5.68;3.10;;;;;;;13.96;100.00;100954.66;693085;28;930;-60
2023/07/14 00:06:41;;;;;;;6.35;3.00;;;;;;;13.99;100.00;100959.00;691792;28;974;-60
2023/07/14 00:07:03;;;;;;;5.10;2.90;;;;;;;13.98;100.00;100952.84;689000;28;1649;-60
2023/07/14 00:07:23;;;;;;;4.63;2.70;;;;;;;13.98;100.00;100957.25;688914;28;4488;-60
2023/07/14 00:07:49;;;;;;;4.32;2.60;;;;;;;14.00;100.00;100955.44;690302;28;804;-60
2023/07/14 00:08:18;;;;;;;5.00;2.78;;;;;;;14.00;100.00;100958.97;686757;28;1613;-60
2023/07/14 00:08:40;;;;;;;5.90;2.95;;;;;;;14.02;100.00;100958.94;685913;28;955;-60
2023/07/14 00:09:00;;;;;;;4.80;2.95;;;;;;;14.01;100.00;100954.56;688605;28;1539;-61
2023/07/14 00:09:28;;;;;;;5.18;2.95;;;;;;;13.96;100.00;100952.88;690048;28;1030;-61
2023/07/14 00:09:49;;;;;;;5.45;2.78;;;;;;;13.99;100.00;100959.00;688990;28;1006;-61
2023/07/14 00:10:21;;;;;;;6.80;2.93;;;;;;;13.99;100.00;100957.22;685161;28;4341;-61
2023/07/14 00:10:42;;;;;;;6.35;3.00;;;;;;;13.99;100.00;100957.22;686684;28;1540;-61
2023/07/14 00:11:09;;;;;;;6.80;3.00;;;;;;;13.96;100.00;100962.53;685668;28;1716;-61
2023/07/14 00:11:30;;;;;;;5.22;3.00;;;;;;;13.93;100.00;100955.56;686400;28;888;-61
2023/07/14 00:11:51;;;;;;;5.40;2.90;;;;;;;13.94;100.00;100956.41;684314;28;1531;-60
2023/07/14 00:12:14;;;;;;;4.72;2.72;;;;;;;13.95;100.00;100955.53;690051;28;1120;-60
2023/07/14 00:12:34;;;;;;;4.82;2.80;;;;;;;13.99;100.00;100961.63;690457;28;1043;-60
2023/07/14 00:12:55;;;;;;;3.90;2.70;;;;;;;14.00;100.00;100963.34;688945;28;1477;-61
2023/07/14 00:13:15;;;;;;;5.15;2.80;;;;;;;14.01;100.00;100959.81;689689;28;4536;-60
2023/07/14 00:13:36;;;;;;;5.00;2.80;;;;;;;14.02;100.00;100957.16;689594;28;1313;-60
2023/07/14 00:13:57;;;;;;;4.57;2.78;;;;;;;14.01;100.00;100957.19;687435;28;1483;-60
2023/07/14 00:14:18;;;;;;;4.40;2.65;;;;;;;14.02;100.00;100962.44;689030;28;1050;-60
2023/07/14 00:14:38;;;;;;;5.40;2.67;;;;;;;14.03;100.00;100958.06;689093;28;932;-60
2023/07/14 00:14:59;;;;;;;5.93;2.67;;;;;;;14.04;100.00;100962.41;688882;28;1456;-59
2023/07/14 00:15:23;;;;;;;5.32;2.78;;;;;;;14.04;100.00;100959.78;689916;28;1277;-60
2023/07/14 00:15:44;;;;;;;5.30;2.78;;;;;;;14.13;100.00;100951.75;689622;28;1048;-61
2023/07/14 00:16:32;;;;;;;4.25;2.60;;;;;;;14.12;100.00;100953.53;688834;28;1500;-61
2023/07/14 00:16:53;;;;;;;5.40;2.80;;;;;;;14.18;100.00;100951.69;688120;28;4821;-60
2023/07/14 00:17:14;;;;;;;5.18;2.50;;;;;;;14.17;100.00;100952.59;689896;28;1524;-61
2023/07/14 00:17:34;;;;;;;4.78;2.53;;;;;;;14.15;100.00;100955.25;689656;28;956;-61
2023/07/14 00:17:59;;;;;;;5.05;2.85;;;;;;;14.14;100.00;100953.50;685492;28;1472;-60
2023/07/14 00:18:25;;;;;;;8.07;2.85;;;;;;;14.12;100.00;100960.53;686826;28;936;-61
2023/07/14 00:18:45;;;;;;;4.80;2.70;;;;;;;14.09;100.00;100953.56;684571;28;924;-60
2023/07/14 00:19:14;;;;;;;4.93;2.80;;;;;;;14.21;100.00;100949.88;684957;28;1616;-61
2023/07/14 00:19:34;;;;;;;5.63;2.50;;;;;;;14.22;100.00;100948.13;686075;28;4764;-60
2023/07/14 00:19:54;;;;;;;4.60;2.37;;;;;;;14.22;100.00;100948.13;687424;28;3424;-61
2023/07/14 00:20:28;;;;;;;5.55;2.70;;;;;;;14.20;100.00;100944.66;687183;28;1283;-61
2023/07/14 00:20:49;;;;;;;4.88;2.58;;;;;;;14.17;100.00;100950.81;687980;28;928;-60
2023/07/14 00:21:21;;;;;;;6.23;2.47;;;;;;;14.16;100.00;100946.44;688266;28;1627;-60
2023/07/14 00:21:43;;;;;;;5.00;2.70;;;;;;;14.16;100.00;100945.59;685412;28;1494;-60
2023/07/14 00:22:11;;;;;;;4.63;2.50;;;;;;;14.18;100.00;100943.78;683061;28;1603;-60
2023/07/14 00:22:31;;;;;;;5.13;2.50;;;;;;;14.14;100.00;100938.59;685302;28;4927;-60
2023/07/14 00:22:53;;;;;;;5.47;2.90;;;;;;;14.14;100.00;100941.22;685021;28;1602;-61
2023/07/14 00:23:15;;;;;;;4.90;2.80;;;;;;;14.13;100.00;100938.63;686249;28;999;-60
2023/07/14 00:23:35;;;;;;;4.13;2.50;;;;;;;14.11;100.00;100935.16;685631;28;936;-60
2023/07/14 00:24:00;;;;;;;4.83;2.60;;;;;;;14.11;100.00;100935.16;686066;28;907;-60
2023/07/14 00:24:21;;;;;;;4.78;2.60;;;;;;;14.09;100.00;100936.94;689712;28;1000;-61
2023/07/14 00:24:42;;;;;;;5.03;2.42;;;;;;;14.10;100.00;100938.66;689246;28;1125;-60
2023/07/14 00:25:04;;;;;;;5.32;2.58;;;;;;;14.09;100.00;100936.94;688424;28;1521;-60
2023/07/14 00:25:25;;;;;;;5.47;2.67;;;;;;;14.10;100.00;100933.41;688824;28;4345;-61
2023/07/14 00:25:46;;;;;;;5.38;2.80;;;;;;;14.09;100.00;100936.94;689977;28;813;-61
2023/07/14 00:26:15;;;;;;;5.50;2.80;;;;;;;14.07;100.00;100936.94;688107;28;1552;-60
2023/07/14 00:26:36;;;;;;;5.43;2.58;;;;;;;14.10;100.00;100936.03;688137;28;2222;-60
2023/07/14 00:26:58;;;;;;;6.03;2.53;;;;;;;14.11;100.00;100936.00;685627;28;1594;-60
2023/07/14 00:27:21;;;;;;;5.00;2.55;;;;;;;14.09;100.00;100931.66;686824;28;1269;-61
2023/07/14 00:27:42;;;;;;;4.20;2.45;;;;;;;14.10;100.00;100936.03;687359;28;1023;-60
2023/07/14 00:28:03;;;;;;;4.75;2.60;;;;;;;14.12;100.00;100940.38;685516;28;1483;-60
2023/07/14 00:28:24;;;;;;;4.82;2.60;;;;;;;14.12;100.00;100931.63;686929;28;4587;-60
2023/07/14 00:28:48;;;;;;;4.50;2.50;;;;;;;14.10;100.00;100938.66;690753;28;884;-61
2023/07/14 00:29:34;;;;;;;4.95;2.65;;;;;;;14.13;100.00;100934.22;691237;28;1921;-61
2023/07/14 00:29:57;;;;;;;5.40;2.50;;;;;;;14.16;100.00;100928.03;679889;28;1480;-60
2023/07/14 00:30:24;;;;;;;5.75;2.70;;;;;;;14.17;100.00;100940.31;689726;28;1038;-60
2023/07/14 00:30:46;;;;;;;4.22;2.40;;;;;;;14.17;100.00;100931.56;690141;28;2100;-60
2023/07/14 00:31:17;;;;;;;5.15;2.50;;;;;;;14.16;100.00;100941.19;684767;28;4408;-61
2023/07/14 00:31:37;;;;;;;5.13;2.60;;;;;;;14.14;100.00;100929.84;687690;28;751;-60
2023/07/14 00:31:57;;;;;;;4.82;2.70;;;;;;;14.15;100.00;100936.84;688357;28;1561;-60
2023/07/14 00:32:20;;;;;;;5.10;2.60;;;;;;;14.15;100.00;100936.84;689597;28;916;-58
2023/07/14 00:32:41;;;;;;;4.13;2.40;;;;;;;14.16;100.00;100938.56;690175;28;1252;-63
2023/07/14 00:33:10;;;;;;;4.65;2.40;;;;;;;14.11;100.00;100941.28;688603;28;1109;-60
2023/07/14 00:33:32;;;;;;;4.72;2.47;;;;;;;14.12;100.00;100936.88;688794;28;1501;-61
2023/07/14 00:33:54;;;;;;;4.25;2.38;;;;;;;14.12;100.00;100934.25;687709;28;1727;-60
2023/07/14 00:34:15;;;;;;;4.13;2.38;;;;;;;14.10;100.00;100941.31;687846;28;4577;-60
2023/07/14 00:34:35;;;;;;;4.83;2.53;;;;;;;14.09;100.00;100937.78;689140;28;928;-60
2023/07/14 00:34:55;;;;;;;5.18;2.55;;;;;;;14.10;100.00;100938.66;685002;28;1527;-60
2023/07/14 00:35:23;;;;;;;3.73;2.33;;;;;;;14.12;100.00;100934.25;686436;28;968;-60
2023/07/14 00:35:49;;;;;;;4.88;2.60;;;;;;;14.09;100.00;100943.03;688234;28;832;-60
2023/07/14 00:36:11;;;;;;;4.70;2.60;;;;;;;14.05;100.00;100941.38;688098;28;1207;-60
2023/07/14 00:36:32;;;;;;;5.72;2.97;;;;;;;14.04;100.00;100938.75;686004;28;1919;-61
2023/07/14 00:36:54;;;;;;;5.45;3.00;;;;;;;14.02;100.00;100935.28;685047;28;1604;-60
2023/07/14 00:37:14;;;;;;;5.78;2.80;;;;;;;13.99;100.00;100938.81;686774;28;4565;-61
2023/07/14 00:37:35;;;;;;;5.47;2.67;;;;;;;14.02;100.00;100935.28;685895;28;873;-60
2023/07/14 00:37:57;;;;;;;5.65;2.40;;;;;;;14.01;100.00;100933.53;686308;28;1599;-60
2023/07/14 00:38:17;;;;;;;4.93;2.80;;;;;;;14.00;100.00;100935.31;683610;28;1268;-60
2023/07/14 00:38:38;;;;;;;4.22;2.58;;;;;;;14.02;100.00;100935.28;683557;28;1185;-60
2023/07/14 00:38:59;;;;;;;5.53;2.50;;;;;;;14.03;100.00;100931.78;686231;28;1658;-60
2023/07/14 00:39:19;;;;;;;6.10;2.90;;;;;;;14.02;100.00;100930.03;687273;28;1259;-61
2023/07/14 00:39:41;;;;;;;5.05;2.70;;;;;;;14.02;100.00;100932.66;685292;28;893;-61
2023/07/14 00:40:01;;;;;;;4.80;3.00;;;;;;;14.02;100.00;100936.13;684731;28;1569;-60
2023/07/14 00:40:44;;;;;;;5.00;3.00;;;;;;;14.00;100.00;100931.78;685352;28;4427;-61
2023/07/14 00:41:18;;;;;;;4.53;2.60;;;;;;;13.99;100.00;100935.34;683390;28;1608;-60
2023/07/14 00:41:39;;;;;;;5.88;2.90;;;;;;;13.98;100.00;100931.81;686201;28;1028;-60
2023/07/14 00:42:00;;;;;;;4.60;2.55;;;;;;;13.98;100.00;100928.34;683149;28;1556;-61
2023/07/14 00:42:21;;;;;;;5.38;2.60;;;;;;;13.96;100.00;100934.47;685171;28;5168;-61
2023/07/14 00:42:42;;;;;;;6.28;2.60;;;;;;;13.96;100.00;100931.84;685194;28;871;-61
2023/07/14 00:43:05;;;;;;;4.90;2.55;;;;;;;13.95;100.00;100930.09;685675;28;1520;-60
2023/07/14 00:43:26;;;;;;;5.18;2.63;;;;;;;13.95;100.00;100930.09;688833;28;4355;-60
2023/07/14 00:43:46;;;;;;;5.97;2.47;;;;;;;13.99;100.00;100933.56;685782;28;1332;-60
2023/07/14 00:44:12;;;;;;;5.18;2.45;;;;;;;13.99;100.00;100936.19;685344;28;1469;-61
2023/07/14 00:44:35;;;;;;;4.63;2.53;;;;;;;14.01;100.00;100928.28;685381;28;959;-61
2023/07/14 00:44:55;;;;;;;4.30;2.57;;;;;;;14.01;100.00;100934.44;685262;28;1628;-60
2023/07/14 00:45:20;;;;;;;5.30;2.72;;;;;;;14.01;100.00;100934.44;686488;28;826;-60
2023/07/14 00:45:41;;;;;;;5.22;2.70;;;;;;;14.03;100.00;100924.75;685971;28;1047;-60
2023/07/14 00:46:03;;;;;;;4.67;2.47;;;;;;;14.02;100.00;100933.50;685993;28;2924;-61
2023/07/14 00:46:29;;;;;;;4.03;2.30;;;;;;;14.01;100.00;100929.16;687891;28;4496;-60
2023/07/14 00:46:49;;;;;;;4.45;2.30;;;;;;;14.03;100.00;100926.50;689853;28;1209;-60
2023/07/14 00:47:26;;;;;;;4.63;2.40;;;;;;;14.05;100.00;100929.97;685589;28;1556;-61
2023/07/14 00:47:52;;;;;;;4.95;2.55;;;;;;;14.07;100.00;100926.44;689354;28;1291;-60
2023/07/14 00:48:16;;;;;;;4.55;2.50;;;;;;;14.09;100.00;100926.41;689083;28;1038;-61
2023/07/14 00:48:38;;;;;;;4.30;2.47;;;;;;;14.08;100.00;100924.66;690105;28;845;-60
2023/07/14 00:49:05;;;;;;;5.43;2.60;;;;;;;14.05;100.00;100929.97;685751;28;1470;-60
2023/07/14 00:49:33;;;;;;;4.50;2.50;;;;;;;14.04;100.00;100925.59;689298;28;4433;-60
2023/07/14 00:49:55;;;;;;;4.30;2.40;;;;;;;14.04;100.00;100922.97;688305;28;1555;-60
2023/07/14 00:50:30;;;;;;;4.80;2.40;;;;;;;14.04;100.00;100923.84;689951;28;1196;-60
2023/07/14 00:51:13;;;;;;;5.70;2.50;;;;;;;14.07;100.00;100925.56;688690;28;1005;-61
2023/07/14 00:51:35;;;;;;;4.72;2.30;;;;;;;14.07;100.00;100929.06;688657;28;782;-61
2023/07/14 00:52:04;;;;;;;4.38;2.55;;;;;;;14.06;100.00;100932.56;688096;28;2058;-60
2023/07/14 00:52:31;;;;;;;4.82;2.50;;;;;;;14.07;100.00;100933.47;689112;28;4594;-60
2023/07/14 00:52:53;;;;;;;4.90;2.33;;;;;;;14.09;100.00;100926.41;689075;28;1602;-60
2023/07/14 00:53:37;;;;;;;4.65;2.30;;;;;;;14.10;100.00;100931.63;688813;28;864;-60
2023/07/14 00:53:57;;;;;;;4.47;2.47;;;;;;;14.13;100.00;100926.31;688313;28;1461;-61
2023/07/14 00:54:28;;;;;;;4.00;2.35;;;;;;;14.14;100.00;100929.84;689256;28;1816;-61
2023/07/14 00:54:51;;;;;;;5.15;2.67;;;;;;;14.12;100.00;100927.25;686235;28;927;-60
2023/07/14 00:55:39;;;;;;;5.57;2.38;;;;;;;14.15;100.00;100926.34;686275;28;4607;-60
2023/07/14 00:56:20;;;;;;;4.40;2.20;;;;;;;14.16;100.00;100922.78;681335;28;1764;-60
2023/07/14 00:56:47;;;;;;;4.75;2.65;;;;;;;14.17;100.00;100921.91;680459;29;1192;-61
2023/07/14 00:57:17;;;;;;;5.75;2.85;;;;;;;14.17;100.00;100927.16;683357;28;1665;-61
2023/07/14 00:57:38;;;;;;;4.75;2.50;;;;;;;14.18;100.00;100928.91;684293;28;924;-60
2023/07/14 00:57:59;;;;;;;5.38;2.53;;;;;;;14.16;100.00;100928.03;682770;28;1523;-61
2023/07/14 00:58:23;;;;;;;5.25;2.63;;;;;;;14.18;100.00;100930.66;683884;28;4541;-61
2023/07/14 00:58:49;;;;;;;4.82;2.70;;;;;;;14.18;100.00;100931.53;684688;28;824;-60
2023/07/14 00:59:14;;;;;;;4.65;2.47;;;;;;;14.17;100.00;100935.03;685596;28;1666;-60
2023/07/14 00:59:36;;;;;;;4.75;2.70;;;;;;;14.14;100.00;100925.44;683189;28;1308;-61
2023/07/14 01:00:16;;;;;;;3.97;2.40;;;;;;;14.15;100.00;100928.97;686036;28;1533;-60
2023/07/14 01:00:37;;;;;;;4.82;2.47;;;;;;;14.13;100.00;100933.34;688566;28;1086;-61
2023/07/14 01:01:05;;;;;;;4.33;2.10;;;;;;;14.16;100.00;100932.44;685934;28;1590;-61
2023/07/14 01:01:28;;;;;;;5.55;2.30;;;;;;;14.14;100.00;100930.69;686540;28;4528;-60
2023/07/14 01:02:10;;;;;;;5.15;2.20;;;;;;;14.13;100.00;100934.22;682767;28;1267;-60
2023/07/14 01:02:30;;;;;;;5.13;2.50;;;;;;;14.13;100.00;100933.34;683285;28;2251;-60
2023/07/14 01:02:51;;;;;;;5.88;2.42;;;;;;;14.12;100.00;100931.63;685233;28;1390;-60
2023/07/14 01:03:16;;;;;;;5.93;2.57;;;;;;;14.11;100.00;100940.41;684036;28;1538;-60
2023/07/14 01:03:40;;;;;;;4.75;2.38;;;;;;;14.14;100.00;100937.72;686003;28;817;-61
2023/07/14 01:04:02;;;;;;;4.70;2.38;;;;;;;14.13;100.00;100938.63;684042;28;1453;-61
2023/07/14 01:04:22;;;;;;;5.47;2.22;;;;;;;14.12;100.00;100931.63;686500;28;4330;-60
2023/07/14 01:04:54;;;;;;;4.30;2.30;;;;;;;14.10;100.00;100938.66;688239;28;1216;-60
2023/07/14 01:05:14;;;;;;;5.22;2.60;;;;;;;14.13;100.00;100935.97;689940;28;865;-60
2023/07/14 01:05:35;;;;;;;6.13;2.88;;;;;;;14.13;100.00;100935.97;689633;28;778;-60
2023/07/14 01:05:58;;;;;;;5.60;2.60;;;;;;;14.11;100.00;100937.78;684304;28;1457;-60
2023/07/14 01:06:23;;;;;;;3.95;2.60;;;;;;;14.10;100.00;100939.53;684668;28;1346;-60
2023/07/14 01:06:45;;;;;;;4.80;2.45;;;;;;;14.14;100.00;100932.47;684346;28;1749;-60
2023/07/14 01:07:06;;;;;;;4.10;2.30;;;;;;;14.14;100.00;100935.97;683230;28;1708;-61
2023/07/14 01:07:35;;;;;;;4.45;2.60;;;;;;;14.12;100.00;100934.25;683306;28;4547;-61
2023/07/14 01:07:56;;;;;;;5.43;2.33;;;;;;;14.10;100.00;100933.41;685304;28;1456;-60
2023/07/14 01:08:17;;;;;;;4.00;2.40;;;;;;;14.12;100.00;100931.63;689628;28;893;-60
2023/07/14 01:08:46;;;;;;;4.43;2.40;;;;;;;14.12;100.00;100934.25;689082;28;1471;-60
2023/07/14 01:09:11;;;;;;;4.90;2.13;;;;;;;14.14;100.00;100929.84;685074;28;1217;-60
2023/07/14 01:09:32;;;;;;;4.93;2.92;;;;;;;14.14;100.00;100933.31;686322;28;1232;-60
2023/07/14 01:09:56;;;;;;;3.92;2.42;;;;;;;14.15;100.00;100928.97;682646;28;1596;-60
2023/07/14 01:10:22;;;;;;;3.65;2.35;;;;;;;14.16;100.00;100925.41;684091;28;4326;-61
2023/07/14 01:10:42;;;;;;;3.65;2.05;;;;;;;14.14;100.00;100928.06;684614;28;1291;-60
2023/07/14 01:11:03;;;;;;;4.10;2.30;;;;;;;14.14;100.00;100929.84;684258;28;1539;-61
2023/07/14 01:11:30;;;;;;;4.03;2.28;;;;;;;14.14;100.00;100922.81;687203;28;1003;-62
2023/07/14 01:11:54;;;;;;;4.28;2.50;;;;;;;14.16;100.00;100927.19;689751;28;940;-60
2023/07/14 01:12:21;;;;;;;4.32;2.50;;;;;;;14.16;100.00;100927.19;688036;28;1305;-60
2023/07/14 01:12:50;;;;;;;5.50;2.50;;;;;;;14.13;100.00;100928.09;688880;28;979;-61
2023/07/14 01:13:12;;;;;;;5.45;2.50;;;;;;;14.16;100.00;100921.94;684243;28;4340;-61
2023/07/14 01:13:32;;;;;;;5.22;2.40;;;;;;;14.13;100.00;100914.94;686331;28;885;-61
2023/07/14 01:13:53;;;;;;;5.25;2.35;;;;;;;14.13;100.00;100926.31;683126;28;1742;-60
2023/07/14 01:14:21;;;;;;;4.90;2.42;;;;;;;14.14;100.00;100924.59;685890;28;1063;-60
2023/07/14 01:14:46;;;;;;;4.68;2.38;;;;;;;14.15;100.00;100926.34;684052;28;2263;-58
2023/07/14 01:15:07;;;;;;;3.95;2.22;;;;;;;14.12;100.00;100935.13;684912;28;1465;-60
2023/07/14 01:15:28;;;;;;;3.95;2.22;;;;;;;14.14;100.00;100929.84;687134;28;1528;-60
2023/07/14 01:15:49;;;;;;;3.73;2.40;;;;;;;14.14;100.00;100927.22;689268;28;877;-60
2023/07/14 01:16:14;;;;;;;4.80;2.33;;;;;;;14.09;100.00;100922.00;686867;28;4393;-61
2023/07/14 01:16:37;;;;;;;4.70;2.60;;;;;;;14.07;100.00;100928.22;688030;28;1918;-60
2023/07/14 01:16:59;;;;;;;4.90;2.70;;;;;;;14.06;100.00;100932.56;685661;28;1578;-60
2023/07/14 01:17:21;;;;;;;4.80;2.60;;;;;;;14.03;100.00;100927.38;685203;28;1677;-61
2023/07/14 01:17:43;;;;;;;5.25;2.60;;;;;;;14.04;100.00;100928.22;681735;29;1233;-61
2023/07/14 01:18:04;;;;;;;5.05;2.55;;;;;;;14.05;100.00;100933.50;680157;29;1543;-61
2023/07/14 01:18:25;;;;;;;4.53;2.40;;;;;;;14.06;100.00;100931.72;682857;28;1406;-61
2023/07/14 01:18:47;;;;;;;4.30;2.53;;;;;;;14.06;100.00;100929.09;685284;28;1374;-61
2023/07/14 01:19:44;;;;;;;4.70;2.60;;;;;;;14.05;100.00;100932.59;685504;28;4725;-61
2023/07/14 01:20:09;;;;;;;4.03;2.30;;;;;;;14.06;100.00;100927.31;682530;28;1599;-60
2023/07/14 01:20:30;;;;;;;4.43;2.63;;;;;;;14.06;100.00;100926.47;680989;28;1417;-61
2023/07/14 01:20:51;;;;;;;5.05;2.50;;;;;;;14.07;100.00;100929.06;687274;28;995;-61
2023/07/14 01:21:12;;;;;;;4.97;2.38;;;;;;;14.07;100.00;100928.22;685761;28;1481;-61
2023/07/14 01:21:33;;;;;;;4.72;2.45;;;;;;;14.06;100.00;100929.09;687022;28;901;-60
2023/07/14 01:22:05;;;;;;;5.63;2.50;;;;;;;14.07;100.00;100926.44;684367;28;1576;-60
2023/07/14 01:22:37;;;;;;;4.22;2.55;;;;;;;14.10;100.00;100929.00;688455;28;4384;-61
2023/07/14 01:23:16;;;;;;;4.82;2.50;;;;;;;14.13;100.00;100933.34;688150;28;1543;-61
2023/07/14 01:23:59;;;;;;;4.10;2.47;;;;;;;14.10;100.00;100936.91;686431;28;1279;-61
2023/07/14 01:24:29;;;;;;;4.20;2.40;;;;;;;14.07;100.00;100928.22;686930;28;1315;-61
2023/07/14 01:25:28;;;;;;;4.90;2.45;;;;;;;14.10;100.00;100933.41;686754;28;1440;-60
2023/07/14 01:25:58;;;;;;;4.65;2.50;;;;;;;14.08;100.00;100929.91;687845;28;4787;-61
2023/07/14 01:26:40;;;;;;;4.40;2.42;;;;;;;14.08;100.00;100928.19;691390;28;1039;-60
2023/07/14 01:27:05;;;;;;;4.63;2.40;;;;;;;14.07;100.00;100929.06;687988;28;1530;-60
2023/07/14 01:27:26;;;;;;;4.72;2.90;;;;;;;14.05;100.00;100928.22;689523;28;1087;-61
2023/07/14 01:27:47;;;;;;;5.68;2.80;;;;;;;14.06;100.00;100927.31;689872;28;831;-62
2023/07/14 01:28:12;;;;;;;5.32;2.42;;;;;;;14.06;100.00;100931.72;688340;28;1583;-61
2023/07/14 01:28:35;;;;;;;4.80;2.70;;;;;;;14.07;100.00;100928.22;689165;28;6006;-60
2023/07/14 01:28:56;;;;;;;5.00;2.60;;;;;;;14.06;100.00;100931.72;688230;28;1507;-60
2023/07/14 01:29:18;;;;;;;4.93;2.35;;;;;;;14.07;100.00;100930.84;691363;28;940;-60
2023/07/14 01:29:39;;;;;;;4.40;2.75;;;;;;;14.07;100.00;100933.47;691663;28;1035;-60
2023/07/14 01:30:00;;;;;;;5.23;2.60;;;;;;;14.03;100.00;100929.16;689989;28;1467;-60
2023/07/14 01:30:21;;;;;;;4.28;2.50;;;;;;;14.03;100.00;100931.78;690723;28;865;-61
2023/07/14 01:30:43;;;;;;;4.20;2.60;;;;;;;14.04;100.00;100929.13;689496;28;956;-61
2023/07/14 01:31:03;;;;;;;4.23;2.50;;;;;;;14.04;100.00;100934.38;688424;28;902;-60
2023/07/14 01:31:24;;;;;;;4.72;2.40;;;;;;;14.05;100.00;100925.59;689143;28;4336;-60
2023/07/14 01:31:47;;;;;;;5.50;2.50;;;;;;;14.07;100.00;100936.09;687212;28;1552;-60
2023/07/14 01:32:35;;;;;;;5.00;2.60;;;;;;;14.07;100.00;100933.47;685724;28;1515;-61
2023/07/14 01:32:56;;;;;;;4.80;2.55;;;;;;;14.07;100.00;100933.47;678253;28;1497;-61
2023/07/14 01:33:18;;;;;;;4.53;2.70;;;;;;;14.06;100.00;100931.72;685816;28;1366;-60
2023/07/14 01:33:39;;;;;;;5.60;2.60;;;;;;;14.07;100.00;100930.84;686633;28;1382;-60
2023/07/14 01:34:01;;;;;;;7.00;2.60;;;;;;;14.07;100.00;100933.47;685803;28;1457;-61
2023/07/14 01:34:22;;;;;;;5.28;2.50;;;;;;;14.08;100.00;100935.19;686557;28;4313;-60
2023/07/14 01:34:44;;;;;;;4.78;2.50;;;;;;;14.08;100.00;100929.91;685063;28;1295;-60
2023/07/14 01:35:07;;;;;;;5.35;2.42;;;;;;;14.07;100.00;100933.47;682745;28;1446;-61
2023/07/14 01:35:31;;;;;;;4.53;2.42;;;;;;;14.08;100.00;100941.31;684724;28;1040;-60
2023/07/14 01:35:56;;;;;;;5.18;2.55;;;;;;;14.10;100.00;100938.66;687033;28;1405;-61
2023/07/14 01:36:17;;;;;;;5.30;2.45;;;;;;;14.11;100.00;100929.91;684705;28;2169;-60
2023/07/14 01:36:38;;;;;;;4.93;2.53;;;;;;;14.12;100.00;100936.88;687490;28;2011;-61
2023/07/14 01:36:58;;;;;;;5.40;2.70;;;;;;;14.12;100.00;100935.13;686930;28;1543;-61
2023/07/14 01:37:20;;;;;;;4.50;2.43;;;;;;;14.13;100.00;100934.22;687426;28;4379;-60
2023/07/14 01:37:40;;;;;;;4.55;2.30;;;;;;;14.13;100.00;100934.22;686782;28;2054;-59
2023/07/14 01:38:02;;;;;;;4.22;2.40;;;;;;;14.15;100.00;100936.84;682070;28;1563;-60
2023/07/14 01:38:23;;;;;;;5.40;2.58;;;;;;;14.15;100.00;100934.22;679795;29;1206;-61
2023/07/14 01:38:45;;;;;;;5.75;2.60;;;;;;;14.16;100.00;100935.94;677915;29;1460;-61
2023/07/14 01:39:05;;;;;;;6.28;2.70;;;;;;;14.17;100.00;100942.06;677048;29;1498;-60
2023/07/14 01:39:26;;;;;;;5.07;2.90;;;;;;;14.16;100.00;100933.31;678264;28;1142;-61
2023/07/14 01:39:48;;;;;;;5.90;2.65;;;;;;;14.17;100.00;100937.69;685273;28;1425;-60
2023/07/14 01:40:17;;;;;;;5.27;2.77;;;;;;;14.19;100.00;100933.28;683398;28;4485;-61
2023/07/14 01:40:40;;;;;;;5.63;2.40;;;;;;;14.19;100.00;100933.28;688256;28;814;-61
2023/07/14 01:41:04;;;;;;;4.35;2.50;;;;;;;14.21;100.00;100936.75;684200;28;1549;-60
2023/07/14 01:41:24;;;;;;;4.45;2.53;;;;;;;14.20;100.00;100935.00;684259;28;2102;-60
2023/07/14 01:41:46;;;;;;;4.47;2.45;;;;;;;14.23;100.00;100940.22;683512;28;830;-60
2023/07/14 01:42:07;;;;;;;4.77;2.50;;;;;;;14.22;100.00;100938.47;682374;28;1675;-60
2023/07/14 01:42:28;;;;;;;4.53;2.60;;;;;;;14.23;100.00;100934.09;683613;28;3333;-60
2023/07/14 01:43:00;;;;;;;5.57;2.80;;;;;;;14.23;100.00;100940.22;684983;28;1322;-60
2023/07/14 01:43:22;;;;;;;4.10;2.33;;;;;;;14.25;100.00;100938.44;686065;28;4309;-60
2023/07/14 01:43:43;;;;;;;4.80;2.70;;;;;;;14.26;100.00;100934.91;687010;28;897;-60
2023/07/14 01:44:05;;;;;;;4.63;2.65;;;;;;;14.26;100.00;100931.41;685843;28;1544;-61
2023/07/14 01:44:27;;;;;;;5.20;2.72;;;;;;;14.27;100.00;100934.03;689513;28;1278;-60
2023/07/14 01:44:48;;;;;;;6.50;2.90;;;;;;;14.26;100.00;100934.91;688434;28;1051;-60
2023/07/14 01:45:13;;;;;;;5.30;2.70;;;;;;;14.28;100.00;100927.84;688033;28;1704;-61
2023/07/14 01:45:50;;;;;;;5.03;2.70;;;;;;;14.27;100.00;100930.50;685221;28;881;-60
2023/07/14 01:46:18;;;;;;;5.43;2.70;;;;;;;14.25;100.00;100927.91;684336;28;4407;-60
2023/07/14 01:46:38;;;;;;;5.65;2.40;;;;;;;14.24;100.00;100930.56;686136;28;1315;-60
2023/07/14 01:47:00;;;;;;;4.80;2.70;;;;;;;14.23;100.00;100934.97;685283;28;1775;-60
2023/07/14 01:47:22;;;;;;;4.88;2.63;;;;;;;14.21;100.00;100931.47;686786;28;1253;-60
2023/07/14 01:47:47;;;;;;;4.45;2.58;;;;;;;14.21;100.00;100934.09;686772;28;1263;-61
2023/07/14 01:48:12;;;;;;;5.07;2.70;;;;;;;14.19;100.00;100935.03;682792;28;1528;-61
2023/07/14 01:49:01;;;;;;;6.05;2.70;;;;;;;14.21;100.00;100938.50;683374;28;913;-60
2023/07/14 01:49:34;;;;;;;5.00;2.50;;;;;;;14.19;100.00;100928.03;683507;28;4303;-61
2023/07/14 01:49:55;;;;;;;4.53;2.72;;;;;;;14.20;100.00;100927.09;685969;28;1472;-60
2023/07/14 01:50:25;;;;;;;4.80;2.70;;;;;;;14.22;100.00;100932.34;686954;28;1334;-61
2023/07/14 01:50:52;;;;;;;4.50;2.67;;;;;;;14.25;100.00;100938.44;686586;28;1092;-60
2023/07/14 01:51:13;;;;;;;6.22;2.67;;;;;;;14.26;100.00;100937.53;687123;28;1541;-60
2023/07/14 01:51:39;;;;;;;4.90;2.55;;;;;;;14.27;100.00;100936.66;689022;28;1073;-60
2023/07/14 01:52:02;;;;;;;4.15;2.45;;;;;;;14.27;100.00;100933.16;687653;28;1487;-61
2023/07/14 01:52:29;;;;;;;4.80;2.75;;;;;;;14.25;100.00;100935.81;689503;28;4523;-60
2023/07/14 01:52:54;;;;;;;6.03;2.67;;;;;;;14.23;100.00;100929.72;688715;28;917;-62
2023/07/14 01:53:24;;;;;;;5.75;2.55;;;;;;;14.25;100.00;100934.94;686940;28;813;-60
2023/07/14 01:53:53;;;;;;;4.53;2.45;;;;;;;14.23;100.00;100931.44;685723;28;895;-61
2023/07/14 01:54:38;;;;;;;5.32;2.63;;;;;;;14.22;100.00;100935.84;682700;28;1887;-60
2023/07/14 01:55:05;;;;;;;4.28;2.28;;;;;;;14.28;100.00;100937.50;683995;28;1639;-60
2023/07/14 01:55:32;;;;;;;6.63;2.80;;;;;;;14.29;100.00;100936.63;683249;28;4746;-60
2023/07/14 01:55:56;;;;;;;4.95;2.75;;;;;;;14.31;100.00;100934.84;682234;28;1467;-60
2023/07/14 01:56:20;;;;;;;5.25;2.53;;;;;;;14.31;100.00;100935.69;686657;28;1298;-61